createdAt,value
2023-03-18T00:00:13.690Z,12.18
2023-03-18T00:02:42.178Z,12.73
2023-03-18T00:05:11.191Z,11.57
2023-03-18T00:07:38.160Z,12.55
2023-03-18T00:10:06.903Z,12.15
2023-03-18T00:12:34.568Z,12.75
2023-03-18T00:15:02.541Z,12.45
2023-03-18T00:17:29.350Z,12.70
2023-03-18T00:19:56.195Z,11.95
2023-03-18T00:22:22.964Z,11.32
2023-03-18T00:24:49.775Z,11.48
2023-03-18T00:27:16.667Z,11.45
2023-03-18T00:29:46.296Z,12.40
2023-03-18T00:32:13.064Z,11.68
2023-03-18T00:34:40.706Z,11.95
2023-03-18T00:37:10.508Z,12.95
2023-03-18T00:39:40.117Z,12.63
2023-03-18T00:42:10.815Z,11.90
2023-03-18T00:44:38.615Z,12.13
2023-03-18T00:47:05.951Z,12.35
2023-03-18T00:49:33.289Z,11.90
2023-03-18T00:52:02.681Z,12.52
2023-03-18T00:54:30.323Z,11.75
2023-03-18T00:56:57.840Z,11.88
2023-03-18T00:59:24.667Z,11.98
2023-03-18T01:01:51.493Z,11.18
2023-03-18T01:04:18.771Z,11.40
2023-03-18T01:06:45.589Z,12.10
2023-03-18T01:09:12.940Z,10.98
2023-03-18T01:11:39.730Z,9.45
2023-03-18T01:14:06.621Z,8.30
2023-03-18T01:16:33.653Z,10.20
2023-03-18T01:19:00.825Z,9.98
2023-03-18T01:21:27.949Z,10.55
2023-03-18T01:23:54.813Z,10.18
2023-03-18T01:26:22.220Z,10.73
2023-03-18T01:28:49.189Z,11.32
2023-03-18T01:31:16.421Z,12.35
2023-03-18T01:33:43.225Z,13.32
2023-03-18T01:36:10.607Z,12.63
2023-03-18T01:38:38.424Z,11.52
2023-03-18T01:41:05.357Z,11.60
2023-03-18T01:43:39.127Z,12.45
2023-03-18T01:46:48.388Z,12.82
2023-03-18T01:49:27.310Z,13.38
2023-03-18T01:52:00.317Z,12.52
2023-03-18T01:54:33.074Z,11.50
2023-03-18T01:57:01.210Z,11.32
2023-03-18T01:59:29.868Z,10.35
2023-03-18T02:02:12.088Z,11.02
2023-03-18T02:04:51.470Z,10.88
2023-03-18T02:07:27.997Z,10.80
2023-03-18T02:09:58.729Z,10.63
2023-03-18T02:12:30.040Z,10.90
2023-03-18T02:14:57.170Z,10.15
2023-03-18T02:17:28.071Z,10.20
2023-03-18T02:20:32.301Z,11.43
2023-03-18T02:23:06.525Z,9.30
2023-03-18T02:26:15.557Z,9.50
2023-03-18T02:28:44.291Z,9.13
2023-03-18T02:31:13.816Z,9.13
2023-03-18T02:33:42.757Z,9.52
2023-03-18T02:36:24.918Z,9.35
2023-03-18T02:38:51.651Z,9.43
2023-03-18T02:41:22.848Z,9.48
2023-03-18T02:43:51.234Z,8.52
2023-03-18T02:46:28.851Z,9.43
2023-03-18T02:48:56.337Z,8.43
2023-03-18T02:51:23.563Z,8.27
2023-03-18T02:53:54.139Z,7.97
2023-03-18T02:56:20.879Z,8.10
2023-03-18T02:58:51.690Z,8.38
2023-03-18T03:01:20.084Z,8.50
2023-03-18T03:03:49.340Z,7.47
2023-03-18T03:06:17.036Z,8.68
2023-03-18T03:08:44.815Z,8.27
2023-03-18T03:11:11.640Z,7.55
2023-03-18T03:13:40.851Z,7.85
2023-03-18T03:16:09.442Z,8.95
2023-03-18T03:18:36.338Z,8.10
2023-03-18T03:21:03.733Z,7.43
2023-03-18T03:23:31.199Z,7.55
2023-03-18T03:25:58.419Z,8.00
2023-03-18T03:28:25.302Z,7.70
2023-03-18T03:30:52.164Z,7.70
2023-03-18T03:33:19.137Z,8.00
2023-03-18T03:35:45.996Z,6.82
2023-03-18T03:38:12.864Z,7.00
2023-03-18T03:40:39.778Z,7.57
2023-03-18T03:43:12.850Z,7.18
2023-03-18T03:45:40.339Z,6.43
2023-03-18T03:48:07.146Z,7.25
2023-03-18T03:50:34.071Z,8.23
2023-03-18T03:53:02.515Z,7.75
2023-03-18T03:55:29.474Z,6.78
2023-03-18T03:57:56.594Z,6.80
2023-03-18T04:00:24.692Z,6.75
2023-03-18T04:02:53.143Z,9.00
2023-03-18T04:05:24.239Z,6.43
2023-03-18T04:07:52.383Z,7.05
2023-03-18T04:10:21.143Z,8.05
2023-03-18T04:12:48.808Z,6.57
2023-03-18T04:15:18.433Z,6.20
2023-03-18T04:17:45.498Z,7.25
2023-03-18T04:20:13.002Z,6.95
2023-03-18T04:22:40.612Z,6.45
2023-03-18T04:25:08.377Z,7.22
2023-03-18T04:27:35.170Z,6.63
2023-03-18T04:30:01.972Z,7.45
2023-03-18T04:32:28.865Z,7.28
2023-03-18T04:34:55.765Z,6.93
2023-03-18T04:37:22.547Z,8.85
2023-03-18T04:39:49.774Z,8.73
2023-03-18T04:42:17.869Z,12.35
2023-03-18T04:44:45.476Z,8.13
2023-03-18T04:47:14.250Z,7.38
2023-03-18T04:49:41.332Z,8.00
2023-03-18T04:52:08.530Z,7.32
2023-03-18T04:54:37.321Z,7.38
2023-03-18T04:57:06.423Z,7.97
2023-03-18T04:59:33.604Z,7.85
2023-03-18T05:02:00.695Z,7.28
2023-03-18T05:04:28.307Z,6.95
2023-03-18T05:06:55.085Z,7.80
2023-03-18T05:09:22.092Z,7.03
2023-03-18T05:11:48.843Z,7.13
2023-03-18T05:14:15.745Z,7.15
2023-03-18T05:16:43.321Z,7.43
2023-03-18T05:19:10.714Z,7.07
2023-03-18T05:21:38.171Z,7.05
2023-03-18T05:24:05.147Z,6.93
2023-03-18T05:26:31.907Z,6.70
2023-03-18T05:28:59.450Z,7.28
2023-03-18T05:31:26.354Z,6.60
2023-03-18T05:33:53.145Z,7.03
2023-03-18T05:36:19.981Z,6.05
2023-03-18T05:38:46.806Z,6.97
2023-03-18T05:41:13.857Z,6.63
2023-03-18T05:43:41.023Z,6.00
2023-03-18T05:46:07.987Z,6.80
2023-03-18T05:48:34.877Z,6.10
2023-03-18T05:51:01.685Z,6.30
2023-03-18T05:53:28.693Z,6.00
2023-03-18T05:55:56.494Z,6.30
2023-03-18T05:58:24.099Z,7.25
2023-03-18T06:00:50.939Z,6.53
2023-03-18T06:03:18.341Z,7.88
2023-03-18T06:05:45.144Z,6.80
2023-03-18T06:08:12.058Z,6.57
2023-03-18T06:10:38.942Z,6.00
2023-03-18T06:13:05.951Z,5.80
2023-03-18T06:15:33.422Z,5.35
2023-03-18T06:18:00.518Z,5.65
2023-03-18T06:20:27.311Z,5.68
2023-03-18T06:22:54.206Z,5.00
2023-03-18T06:25:21.778Z,6.70
2023-03-18T06:27:49.072Z,6.75
2023-03-18T06:30:17.119Z,6.45
2023-03-18T06:32:44.598Z,5.65
2023-03-18T06:35:12.152Z,5.43
2023-03-18T06:37:40.095Z,4.90
2023-03-18T06:40:09.107Z,5.25
2023-03-18T06:42:36.362Z,5.60
2023-03-18T06:45:04.065Z,5.57
2023-03-18T06:47:31.321Z,4.72
2023-03-18T06:49:58.330Z,5.75
2023-03-18T06:52:25.516Z,6.00
2023-03-18T06:54:52.322Z,6.50
2023-03-18T06:57:20.462Z,6.95
2023-03-18T06:59:48.074Z,6.22
2023-03-18T07:02:15.519Z,5.95
2023-03-18T07:04:42.613Z,6.03
2023-03-18T07:07:09.831Z,5.80
2023-03-18T07:09:37.317Z,5.07
2023-03-18T07:12:04.325Z,5.93
2023-03-18T07:14:31.127Z,6.07
2023-03-18T07:16:58.290Z,6.15
2023-03-18T07:19:25.191Z,5.97
2023-03-18T07:21:52.358Z,5.00
2023-03-18T07:24:21.238Z,5.43
2023-03-18T07:26:50.188Z,5.43
2023-03-18T07:29:18.138Z,5.32
2023-03-18T07:31:45.118Z,5.38
2023-03-18T07:34:13.775Z,4.75
2023-03-18T07:36:40.866Z,5.28
2023-03-18T07:39:08.524Z,5.90
2023-03-18T07:41:37.781Z,5.55
2023-03-18T07:44:06.816Z,5.75
2023-03-18T07:46:33.937Z,5.50
2023-03-18T07:49:01.130Z,5.70
2023-03-18T07:51:27.976Z,5.18
2023-03-18T07:53:55.282Z,5.50
2023-03-18T07:56:22.159Z,5.28
2023-03-18T07:58:48.911Z,6.00
2023-03-18T08:01:19.532Z,5.03
2023-03-18T08:03:47.269Z,5.40
2023-03-18T08:06:15.755Z,6.00
2023-03-18T08:08:43.669Z,5.18
2023-03-18T08:11:10.946Z,5.57
2023-03-18T08:13:38.858Z,6.07
2023-03-18T08:16:06.612Z,5.70
2023-03-18T08:18:33.544Z,4.90
2023-03-18T08:21:01.061Z,5.22
2023-03-18T08:23:28.014Z,5.00
2023-03-18T08:25:54.934Z,4.93
2023-03-18T08:28:21.688Z,5.30
2023-03-18T08:30:48.860Z,4.95
2023-03-18T08:33:16.030Z,5.03
2023-03-18T08:35:42.972Z,4.95
2023-03-18T08:38:09.967Z,5.40
2023-03-18T08:40:37.097Z,4.97
2023-03-18T08:43:03.882Z,5.13
2023-03-18T08:45:30.979Z,5.03
2023-03-18T08:47:58.705Z,5.05
2023-03-18T08:50:28.670Z,4.97
2023-03-18T08:52:57.889Z,4.57
2023-03-18T08:55:37.327Z,4.68
2023-03-18T08:58:05.851Z,5.03
2023-03-18T09:00:37.833Z,5.18
2023-03-18T09:03:05.548Z,5.07
2023-03-18T09:05:33.150Z,4.55
2023-03-18T09:08:00.466Z,4.88
2023-03-18T09:10:28.070Z,4.55
2023-03-18T09:12:56.866Z,4.50
2023-03-18T09:15:23.787Z,4.47
2023-03-18T09:18:07.843Z,4.85
2023-03-18T09:23:04.889Z,4.70
2023-03-18T09:25:32.434Z,4.50
2023-03-18T09:28:01.030Z,4.70
2023-03-18T09:30:28.090Z,4.45
2023-03-18T09:32:55.026Z,5.00
2023-03-18T09:35:21.979Z,5.10
2023-03-18T09:37:49.030Z,4.90
2023-03-18T09:40:30.632Z,5.10
2023-03-18T09:43:18.306Z,5.03
2023-03-18T09:45:57.055Z,5.32
2023-03-18T09:49:00.170Z,4.85
2023-03-18T09:51:46.707Z,5.53
2023-03-18T09:56:40.968Z,4.70
2023-03-18T09:59:17.239Z,4.30
2023-03-18T10:01:47.384Z,4.57
2023-03-18T10:04:46.188Z,4.68
2023-03-18T10:07:23.135Z,4.65
2023-03-18T10:09:59.487Z,4.18
2023-03-18T10:12:33.983Z,3.92
2023-03-18T10:15:15.247Z,4.60
2023-03-18T10:17:52.559Z,4.18
2023-03-18T10:20:19.528Z,4.07
2023-03-18T10:23:03.636Z,3.78
2023-03-18T10:25:45.879Z,3.45
2023-03-18T10:28:52.317Z,3.38
2023-03-18T10:31:45.827Z,3.40
2023-03-18T10:34:18.721Z,3.63
2023-03-18T10:37:12.675Z,3.70
2023-03-18T10:39:40.020Z,3.42
2023-03-18T10:42:23.153Z,3.25
2023-03-18T10:44:50.921Z,3.08
2023-03-18T10:47:28.272Z,3.20
2023-03-18T10:50:18.375Z,3.15
2023-03-18T10:52:53.474Z,3.47
2023-03-18T10:55:25.160Z,3.87
2023-03-18T10:57:51.956Z,3.17
2023-03-18T11:00:31.230Z,3.10
2023-03-18T11:02:58.809Z,3.83
2023-03-18T11:05:37.998Z,3.63
2023-03-18T11:08:28.824Z,3.80
2023-03-18T11:10:55.670Z,3.65
2023-03-18T11:13:23.451Z,3.90
2023-03-18T11:15:53.078Z,3.70
2023-03-18T11:18:25.949Z,3.38
2023-03-18T11:21:01.363Z,3.38
2023-03-18T11:23:56.168Z,3.33
2023-03-18T11:26:26.320Z,3.13
2023-03-18T11:29:17.821Z,3.40
2023-03-18T11:31:58.304Z,3.28
2023-03-18T11:34:30.541Z,3.40
2023-03-18T11:37:05.600Z,3.55
2023-03-18T11:39:37.547Z,3.50
2023-03-18T11:42:22.018Z,3.30
2023-03-18T11:44:55.297Z,3.35
2023-03-18T11:47:35.131Z,3.22
2023-03-18T11:50:04.238Z,3.67
2023-03-18T11:52:49.882Z,3.10
2023-03-18T11:55:43.291Z,3.08
2023-03-18T11:58:55.470Z,3.63
2023-03-18T12:01:41.328Z,3.92
2023-03-18T12:04:20.573Z,3.60
2023-03-18T12:07:24.229Z,3.35
2023-03-18T12:09:56.875Z,3.25
2023-03-18T12:12:40.887Z,3.25
2023-03-18T12:15:47.262Z,3.13
2023-03-18T12:18:32.044Z,3.80
2023-03-18T12:21:26.052Z,2.88
2023-03-18T12:24:02.647Z,3.50
2023-03-18T12:26:38.543Z,3.45
2023-03-18T12:29:29.299Z,3.90
2023-03-18T12:32:24.952Z,3.88
2023-03-18T12:35:03.809Z,3.22
2023-03-18T12:37:45.491Z,3.42
2023-03-18T12:40:34.300Z,3.50
2023-03-18T12:43:11.012Z,3.50
2023-03-18T12:45:45.330Z,3.80
2023-03-18T12:48:17.723Z,3.47
2023-03-18T12:50:51.583Z,3.33
2023-03-18T12:53:27.232Z,3.22
2023-03-18T12:56:01.774Z,3.45
2023-03-18T12:58:37.879Z,3.80
2023-03-18T13:01:10.553Z,3.50
2023-03-18T13:03:41.272Z,3.90
2023-03-18T13:06:20.652Z,4.35
2023-03-18T13:08:56.688Z,3.50
2023-03-18T13:11:48.425Z,3.90
2023-03-18T13:14:20.033Z,5.30
2023-03-18T13:16:48.657Z,3.70
2023-03-18T13:19:15.825Z,4.93
2023-03-18T13:21:48.383Z,3.30
2023-03-18T13:24:26.403Z,4.15
2023-03-18T13:27:19.693Z,3.78
2023-03-18T13:29:57.660Z,4.40
2023-03-18T13:32:47.780Z,4.50
2023-03-18T13:35:50.697Z,4.35
2023-03-18T13:38:36.492Z,3.78
2023-03-18T13:41:32.621Z,3.92
2023-03-18T13:44:06.090Z,4.15
2023-03-18T13:46:34.951Z,4.53
2023-03-18T13:49:04.063Z,3.85
2023-03-18T13:51:30.884Z,3.92
2023-03-18T13:54:01.622Z,4.00
2023-03-18T13:56:40.690Z,3.83
2023-03-18T13:59:28.610Z,3.67
2023-03-18T14:02:04.623Z,3.53
2023-03-18T14:07:19.243Z,3.85
2023-03-18T14:10:17.968Z,5.05
2023-03-18T14:12:50.293Z,4.22
2023-03-18T14:15:38.579Z,3.88
2023-03-18T14:18:27.730Z,3.45
2023-03-18T14:20:59.933Z,3.83
2023-03-18T14:23:38.755Z,4.03
2023-03-18T14:26:22.522Z,4.00
2023-03-18T14:28:56.356Z,3.55
2023-03-18T14:31:34.341Z,4.00
2023-03-18T14:34:19.564Z,3.22
2023-03-18T14:36:55.777Z,3.78
2023-03-18T14:39:37.348Z,3.60
2023-03-18T14:42:24.896Z,3.50
2023-03-18T14:44:55.322Z,3.88
2023-03-18T14:47:38.685Z,4.75
2023-03-18T14:50:08.394Z,3.92
2023-03-18T14:52:38.825Z,4.00
2023-03-18T14:55:21.370Z,4.35
2023-03-18T14:57:48.161Z,3.60
2023-03-18T15:00:19.181Z,3.58
2023-03-18T15:03:01.034Z,3.88
2023-03-18T15:05:33.278Z,4.55
2023-03-18T15:08:00.629Z,4.43
2023-03-18T15:10:31.470Z,4.07
2023-03-18T15:13:10.765Z,4.05
2023-03-18T15:15:38.125Z,4.00
2023-03-18T15:18:28.742Z,4.63
2023-03-18T15:21:12.576Z,4.45
2023-03-18T15:23:50.076Z,4.35
2023-03-18T15:26:22.201Z,4.55
2023-03-18T15:28:53.220Z,3.97
2023-03-18T15:31:27.552Z,3.78
2023-03-18T15:34:23.700Z,3.70
2023-03-18T15:36:59.617Z,4.35
2023-03-18T15:42:01.714Z,3.03
2023-03-18T15:44:39.333Z,3.50
2023-03-18T15:47:27.953Z,3.83
2023-03-18T15:49:57.673Z,4.28
2023-03-18T15:52:36.557Z,3.95
2023-03-18T15:55:24.024Z,4.38
2023-03-18T15:57:54.155Z,4.72
2023-03-18T16:00:21.138Z,4.05
2023-03-18T16:02:48.185Z,4.50
2023-03-18T16:05:20.477Z,4.18
2023-03-18T16:07:48.957Z,4.03
2023-03-18T16:10:19.745Z,4.35
2023-03-18T16:12:48.973Z,5.20
2023-03-18T16:15:22.274Z,4.82
2023-03-18T16:17:53.585Z,4.40
2023-03-18T16:20:23.600Z,4.97
2023-03-18T16:22:51.043Z,4.88
2023-03-18T16:25:18.440Z,6.57
2023-03-18T16:27:51.040Z,5.90
2023-03-18T16:30:27.748Z,6.40
2023-03-18T16:32:55.588Z,6.88
2023-03-18T16:35:25.442Z,6.05
2023-03-18T16:37:53.347Z,6.40
2023-03-18T16:40:26.151Z,7.32
2023-03-18T16:42:53.467Z,6.53
2023-03-18T16:45:25.208Z,5.25
2023-03-18T16:47:58.304Z,5.38
2023-03-18T16:50:30.428Z,8.23
2023-03-18T16:52:57.533Z,6.13
2023-03-18T16:55:25.725Z,6.90
2023-03-18T16:57:59.904Z,6.65
2023-03-18T17:00:31.966Z,7.15
2023-03-18T17:03:00.445Z,6.38
2023-03-18T17:05:28.060Z,6.38
2023-03-18T17:07:55.377Z,6.45
2023-03-18T17:10:24.667Z,7.30
2023-03-18T17:12:56.144Z,6.97
2023-03-18T17:15:28.604Z,7.20
2023-03-18T17:17:58.238Z,7.45
2023-03-18T17:20:27.919Z,6.88
2023-03-18T17:22:55.592Z,7.78
2023-03-18T17:25:27.184Z,9.45
2023-03-18T17:28:06.253Z,8.93
2023-03-18T17:30:37.259Z,8.13
2023-03-18T17:33:16.350Z,9.70
2023-03-18T17:35:43.232Z,7.70
2023-03-18T17:38:10.973Z,8.82
2023-03-18T17:40:38.265Z,11.82
2023-03-18T17:43:05.042Z,8.60
2023-03-18T17:45:34.722Z,8.88
2023-03-18T17:48:22.066Z,8.65
2023-03-18T17:51:00.022Z,8.95
2023-03-18T17:53:37.449Z,9.10
2023-03-18T17:56:08.514Z,9.82
2023-03-18T17:58:35.594Z,9.25
2023-03-18T18:01:12.953Z,9.43
2023-03-18T18:03:40.585Z,9.00
2023-03-18T18:06:08.426Z,10.80
2023-03-18T18:08:36.182Z,10.68
2023-03-18T18:11:09.098Z,14.95
2023-03-18T18:13:35.951Z,17.05
2023-03-18T18:16:03.223Z,18.02
2023-03-18T18:18:30.265Z,19.88
2023-03-18T18:20:59.823Z,20.10
2023-03-18T18:23:33.446Z,18.58
2023-03-18T18:26:03.202Z,19.13
2023-03-18T18:28:41.690Z,20.60
2023-03-18T18:31:10.809Z,20.88
2023-03-18T18:33:39.253Z,20.88
2023-03-18T18:36:06.983Z,20.30
2023-03-18T18:38:33.833Z,21.25
2023-03-18T18:41:01.579Z,20.92
2023-03-18T18:43:29.065Z,22.02
2023-03-18T18:45:57.595Z,22.40
2023-03-18T18:48:37.871Z,22.52
2023-03-18T18:51:05.110Z,20.00
2023-03-18T18:53:36.760Z,20.48
2023-03-18T18:56:14.366Z,19.67
2023-03-18T18:58:42.216Z,18.88
2023-03-18T19:01:09.802Z,19.83
2023-03-18T19:03:36.630Z,19.15
2023-03-18T19:06:05.430Z,19.67
2023-03-18T19:08:36.367Z,21.83
2023-03-18T19:11:08.028Z,21.92
2023-03-18T19:13:36.495Z,23.20
2023-03-18T19:16:07.271Z,20.90
2023-03-18T19:18:44.056Z,22.40
2023-03-18T19:21:11.178Z,23.13
2023-03-18T19:23:38.043Z,25.38
2023-03-18T19:26:05.959Z,24.83
2023-03-18T19:28:58.516Z,25.55
2023-03-18T19:31:30.306Z,26.83
2023-03-18T19:33:59.641Z,28.60
2023-03-18T19:36:37.598Z,29.20
2023-03-18T19:39:05.117Z,29.13
2023-03-18T19:41:31.985Z,27.70
2023-03-18T19:44:04.141Z,26.27
2023-03-18T19:46:39.464Z,24.48
2023-03-18T19:49:17.808Z,24.08
2023-03-18T19:51:45.013Z,23.08
2023-03-18T19:54:31.540Z,23.80
2023-03-18T19:59:33.685Z,23.08
2023-03-18T20:02:05.080Z,23.50
2023-03-18T20:04:31.959Z,24.52
2023-03-18T20:06:58.820Z,23.63
2023-03-18T20:09:25.764Z,22.92
2023-03-18T20:12:03.521Z,23.05
2023-03-18T20:14:37.904Z,21.73
2023-03-18T20:17:23.361Z,23.63
2023-03-18T20:19:50.915Z,23.55
2023-03-18T20:22:27.398Z,25.60
2023-03-18T20:24:54.594Z,24.45
2023-03-18T20:27:22.256Z,23.67
2023-03-18T20:29:49.405Z,26.92
2023-03-18T20:32:16.472Z,25.52
2023-03-18T20:34:44.019Z,30.42
2023-03-18T20:37:19.952Z,28.85
2023-03-18T20:42:18.020Z,33.42
2023-03-18T20:44:46.080Z,32.97
2023-03-18T20:47:13.617Z,29.67
2023-03-18T20:49:44.527Z,28.90
2023-03-18T20:52:29.543Z,29.67
2023-03-18T20:54:57.080Z,27.20
2023-03-18T20:57:25.337Z,27.75
2023-03-18T20:59:52.207Z,27.02
2023-03-18T21:02:31.533Z,27.48
2023-03-18T21:05:00.429Z,28.20
2023-03-18T21:07:29.388Z,28.17
2023-03-18T21:09:56.299Z,29.13
2023-03-18T21:12:23.294Z,28.77
2023-03-18T21:14:50.652Z,27.67
2023-03-18T21:17:25.979Z,31.38
2023-03-18T21:20:00.722Z,38.65
2023-03-18T21:22:33.524Z,31.15
2023-03-18T21:25:00.296Z,29.35
2023-03-18T21:27:28.392Z,31.10
2023-03-18T21:29:57.989Z,30.00
2023-03-18T21:32:32.927Z,31.83
2023-03-18T21:35:00.036Z,32.45
2023-03-18T21:37:27.528Z,29.80
2023-03-18T21:39:54.465Z,32.08
2023-03-18T21:42:28.792Z,33.22
2023-03-18T21:44:57.561Z,29.98
2023-03-18T21:47:25.740Z,32.17
2023-03-18T21:49:52.643Z,39.20
2023-03-18T21:52:34.171Z,36.50
2023-03-18T21:55:03.054Z,30.83
2023-03-18T21:57:30.421Z,30.13
2023-03-18T21:59:57.192Z,30.27
2023-03-18T22:02:34.535Z,30.88
2023-03-18T22:05:03.964Z,29.63
2023-03-18T22:07:31.757Z,30.65
2023-03-18T22:09:58.836Z,33.13
2023-03-18T22:12:31.295Z,30.58
2023-03-18T22:14:59.477Z,28.45
2023-03-18T22:17:34.487Z,24.05
2023-03-18T22:20:02.302Z,23.83
2023-03-18T22:22:34.885Z,23.48
2023-03-18T22:25:01.865Z,24.08
2023-03-18T22:27:30.731Z,21.75
2023-03-18T22:29:59.462Z,22.05
2023-03-18T22:32:45.873Z,20.98
2023-03-18T22:37:44.279Z,20.65
2023-03-18T22:40:18.813Z,22.67
2023-03-18T22:42:51.238Z,25.75
2023-03-18T22:45:33.104Z,34.30
2023-03-18T22:48:03.558Z,25.25
2023-03-18T22:50:34.334Z,24.48
2023-03-18T22:53:07.593Z,22.73
2023-03-18T22:55:39.554Z,21.98
2023-03-18T22:58:14.586Z,21.40
2023-03-18T23:00:44.811Z,24.77
2023-03-18T23:03:18.559Z,24.42
2023-03-18T23:05:51.543Z,23.67
2023-03-18T23:08:19.385Z,21.70
2023-03-18T23:10:47.022Z,20.33
2023-03-18T23:13:27.603Z,21.00
2023-03-18T23:15:54.466Z,21.35
2023-03-18T23:18:21.574Z,20.77
2023-03-18T23:20:50.658Z,19.90
2023-03-18T23:23:18.102Z,20.70
2023-03-18T23:25:46.104Z,22.58
2023-03-18T23:28:13.693Z,21.77
2023-03-18T23:30:42.049Z,20.60
2023-03-18T23:33:09.524Z,18.95
2023-03-18T23:35:38.191Z,17.73
2023-03-18T23:38:06.602Z,18.98
2023-03-18T23:40:34.264Z,20.10
2023-03-18T23:43:01.041Z,20.10
2023-03-18T23:45:28.118Z,20.13
2023-03-18T23:47:56.488Z,20.40
2023-03-18T23:50:23.590Z,21.15
2023-03-18T23:52:50.445Z,21.92
2023-03-18T23:55:33.168Z,25.00
2023-03-18T23:58:01.489Z,25.25
